createdAt,value
2022-08-08T00:00:41.092Z,81.40
2022-08-08T00:02:03.134Z,81.20
2022-08-08T00:04:16.298Z,81.30
2022-08-08T00:06:35.167Z,81.40
2022-08-08T00:08:50.414Z,81.70
2022-08-08T00:11:01.033Z,82.10
2022-08-08T00:14:15.310Z,82.00
2022-08-08T00:15:58.200Z,81.90
2022-08-08T00:18:09.667Z,82.20
2022-08-08T00:20:18.466Z,82.40
2022-08-08T00:22:30.237Z,82.40
2022-08-08T00:24:41.764Z,82.40
2022-08-08T00:26:51.039Z,82.40
2022-08-08T00:29:02.899Z,82.20
2022-08-08T00:32:28.663Z,82.00
2022-08-08T00:34:18.166Z,81.90
2022-08-08T00:36:27.400Z,82.00
2022-08-08T00:38:54.680Z,82.20
2022-08-08T00:41:55.076Z,82.50
2022-08-08T00:44:37.669Z,82.20
2022-08-08T00:47:23.998Z,82.20
2022-08-08T00:50:14.703Z,82.40
2022-08-08T00:52:48.497Z,83.10
2022-08-08T00:55:53.429Z,82.90
2022-08-08T00:58:54.584Z,82.90
2022-08-08T01:01:19.712Z,83.20
2022-08-08T01:04:29.505Z,83.20
2022-08-08T01:07:08.361Z,83.10
2022-08-08T01:09:59.031Z,83.40
2022-08-08T01:12:49.681Z,83.00
2022-08-08T01:15:44.008Z,82.90
2022-08-08T01:18:25.292Z,82.50
2022-08-08T01:22:07.157Z,82.40
2022-08-08T01:24:30.994Z,82.60
2022-08-08T01:27:24.066Z,82.80
2022-08-08T01:30:18.855Z,83.30
2022-08-08T01:33:27.605Z,83.40
2022-08-08T01:36:14.725Z,82.90
2022-08-08T01:38:55.280Z,83.00
2022-08-08T01:41:09.930Z,83.50
2022-08-08T01:43:38.515Z,83.60
2022-08-08T01:45:58.562Z,83.70
2022-08-08T01:48:31.121Z,83.50
2022-08-08T01:50:59.358Z,83.40
2022-08-08T01:55:15.790Z,83.70
2022-08-08T01:56:29.968Z,84.10
2022-08-08T01:58:46.308Z,83.90
2022-08-08T02:01:17.996Z,84.30
2022-08-08T02:03:55.702Z,84.30
2022-08-08T02:06:31.877Z,84.10
2022-08-08T02:08:53.364Z,83.70
2022-08-08T02:11:23.797Z,84.00
2022-08-08T02:13:52.585Z,84.40
2022-08-08T02:16:20.808Z,85.00
2022-08-08T02:18:44.082Z,85.30
2022-08-08T02:21:18.280Z,85.40
2022-08-08T02:23:35.603Z,86.00
2022-08-08T02:25:47.201Z,86.60
2022-08-08T02:28:01.309Z,86.80
2022-08-08T02:30:20.684Z,87.50
2022-08-08T02:32:49.629Z,87.80
2022-08-08T02:35:19.399Z,87.70
2022-08-08T02:37:52.997Z,87.40
2022-08-08T02:40:12.023Z,87.30
2022-08-08T02:43:00.615Z,87.60
2022-08-08T02:45:57.796Z,87.50
2022-08-08T02:48:50.702Z,87.70
2022-08-08T02:51:46.557Z,87.70
2022-08-08T02:54:42.563Z,87.70
2022-08-08T02:57:44.340Z,88.10
2022-08-08T03:00:32.226Z,88.90
2022-08-08T03:03:46.351Z,88.40
2022-08-08T03:06:24.219Z,88.60
2022-08-08T03:09:21.051Z,88.70
2022-08-08T03:12:13.687Z,88.40
2022-08-08T03:16:00.544Z,88.30
2022-08-08T03:17:20.052Z,88.70
2022-08-08T03:20:03.799Z,88.60
2022-08-08T03:22:38.891Z,88.30
2022-08-08T03:24:35.970Z,88.60
2022-08-08T03:26:45.982Z,88.60
2022-08-08T03:28:57.872Z,88.90
2022-08-08T03:31:25.676Z,88.90
2022-08-08T03:33:55.699Z,88.70
2022-08-08T03:35:56.609Z,88.20
2022-08-08T03:38:54.813Z,87.30
2022-08-08T03:40:32.110Z,86.80
2022-08-08T03:42:47.568Z,87.10
2022-08-08T03:44:54.641Z,87.90
2022-08-08T03:46:59.810Z,89.30
2022-08-08T03:49:58.097Z,90.00
2022-08-08T03:51:50.754Z,90.00
2022-08-08T03:53:58.582Z,89.40
2022-08-08T03:56:09.637Z,89.60
2022-08-08T03:58:35.042Z,89.30
2022-08-08T04:01:02.212Z,89.30
2022-08-08T04:03:19.158Z,88.80
2022-08-08T04:05:49.728Z,89.00
2022-08-08T04:07:58.620Z,88.50
2022-08-08T04:10:08.452Z,88.10
2022-08-08T04:12:16.897Z,88.40
2022-08-08T04:14:34.332Z,87.80
2022-08-08T04:16:40.914Z,87.00
2022-08-08T04:18:48.978Z,87.00
2022-08-08T04:20:58.625Z,86.60
2022-08-08T04:23:03.737Z,85.70
2022-08-08T04:25:15.554Z,85.00
2022-08-08T04:28:03.053Z,85.00
2022-08-08T04:30:01.168Z,84.30
2022-08-08T04:32:30.881Z,84.10
2022-08-08T04:34:55.353Z,84.20
2022-08-08T04:37:07.500Z,83.70
2022-08-08T04:40:03.784Z,83.70
2022-08-08T04:41:36.961Z,84.80
2022-08-08T04:43:46.254Z,84.30
2022-08-08T04:45:56.517Z,84.30
2022-08-08T04:48:02.513Z,84.40
2022-08-08T04:50:24.142Z,84.00
2022-08-08T04:54:52.054Z,84.40
2022-08-08T04:56:57.131Z,84.30
2022-08-08T04:59:02.700Z,83.90
2022-08-08T05:01:11.326Z,83.50
2022-08-08T05:04:07.893Z,83.70
2022-08-08T05:05:46.739Z,83.60
2022-08-08T05:07:59.092Z,83.40
2022-08-08T05:10:12.856Z,83.30
2022-08-08T05:12:20.486Z,83.30
2022-08-08T05:14:25.310Z,82.90
2022-08-08T05:16:51.606Z,83.00
2022-08-08T05:19:00.839Z,82.60
2022-08-08T05:21:06.048Z,82.80
2022-08-08T05:23:11.590Z,82.30
2022-08-08T05:25:18.061Z,82.80
2022-08-08T05:27:26.830Z,82.00
2022-08-08T05:29:37.880Z,82.70
2022-08-08T05:32:03.711Z,83.60
2022-08-08T05:34:19.123Z,83.20
2022-08-08T05:36:28.317Z,82.10
2022-08-08T05:38:38.092Z,81.80
2022-08-08T05:40:48.995Z,81.40
2022-08-08T05:43:01.481Z,80.80
2022-08-08T05:45:10.154Z,81.10
2022-08-08T05:47:52.638Z,81.50
2022-08-08T05:49:56.426Z,81.90
2022-08-08T05:52:04.563Z,81.40
2022-08-08T05:54:26.727Z,81.80
2022-08-08T05:56:42.414Z,81.10
2022-08-08T05:59:03.576Z,79.80
2022-08-08T06:01:14.619Z,79.40
2022-08-08T06:03:43.919Z,79.50
2022-08-08T06:06:01.351Z,78.80
2022-08-08T06:08:28.384Z,79.40
2022-08-08T06:10:42.488Z,80.30
2022-08-08T06:12:52.949Z,81.10
2022-08-08T06:14:58.462Z,81.30
2022-08-08T06:17:04.935Z,80.30
2022-08-08T06:19:25.132Z,81.00
2022-08-08T06:21:48.702Z,81.90
2022-08-08T06:24:03.594Z,82.60
2022-08-08T06:26:38.194Z,82.60
2022-08-08T06:28:47.593Z,82.50
2022-08-08T06:31:01.160Z,82.10
2022-08-08T06:33:11.956Z,81.70
2022-08-08T06:36:07.567Z,81.30
2022-08-08T06:37:50.813Z,81.30
2022-08-08T06:39:58.623Z,80.20
2022-08-08T06:42:10.666Z,79.50
2022-08-08T06:44:25.603Z,79.20
2022-08-08T06:46:33.931Z,78.70
2022-08-08T06:48:42.437Z,78.00
2022-08-08T06:50:49.994Z,78.00
2022-08-08T06:52:57.773Z,77.30
2022-08-08T06:55:02.666Z,77.70
2022-08-08T06:57:12.020Z,76.50
2022-08-08T06:59:22.524Z,76.10
2022-08-08T07:02:17.100Z,77.00
2022-08-08T07:04:37.121Z,76.50
2022-08-08T07:06:35.291Z,75.90
2022-08-08T07:08:43.915Z,75.30
2022-08-08T07:10:52.980Z,75.70
2022-08-08T07:13:04.736Z,75.90
2022-08-08T07:15:32.546Z,75.30
2022-08-08T07:18:00.820Z,74.50
2022-08-08T07:20:11.391Z,74.50
2022-08-08T07:22:25.623Z,74.50
2022-08-08T07:24:35.675Z,74.00
2022-08-08T07:26:43.108Z,73.70
2022-08-08T07:28:52.827Z,74.20
2022-08-08T07:31:06.087Z,74.30
2022-08-08T07:33:17.388Z,73.70
2022-08-08T07:35:24.561Z,72.40
2022-08-08T07:37:56.129Z,72.70
2022-08-08T07:40:03.644Z,72.90
2022-08-08T07:42:12.994Z,72.80
2022-08-08T07:44:37.673Z,73.10
2022-08-08T07:46:45.966Z,73.60
2022-08-08T07:48:53.551Z,73.40
2022-08-08T07:51:04.484Z,73.00
2022-08-08T07:53:52.231Z,73.50
2022-08-08T07:55:51.417Z,73.10
2022-08-08T07:58:05.709Z,72.50
2022-08-08T08:00:16.692Z,72.50
2022-08-08T08:02:44.379Z,72.20
2022-08-08T08:04:57.060Z,72.10
2022-08-08T08:07:03.842Z,71.90
2022-08-08T08:09:19.300Z,71.20
2022-08-08T08:11:38.283Z,71.40
2022-08-08T08:14:08.328Z,71.30
2022-08-08T08:16:23.911Z,71.30
2022-08-08T08:18:51.703Z,71.40
2022-08-08T08:20:57.584Z,70.80
2022-08-08T08:23:02.723Z,71.00
2022-08-08T08:25:09.451Z,71.40
2022-08-08T08:27:17.597Z,70.70
2022-08-08T08:29:27.843Z,69.70
2022-08-08T08:31:41.609Z,70.00
2022-08-08T08:33:50.661Z,69.40
2022-08-08T08:36:19.269Z,69.10
2022-08-08T08:38:21.417Z,68.40
2022-08-08T08:40:35.177Z,68.40
2022-08-08T08:42:42.043Z,68.90
2022-08-08T08:44:51.564Z,69.40
2022-08-08T08:46:58.887Z,68.60
2022-08-08T08:49:06.732Z,68.40
2022-08-08T08:51:15.831Z,68.20
2022-08-08T08:53:28.370Z,67.70
2022-08-08T08:55:51.268Z,67.90
2022-08-08T08:57:59.985Z,68.80
2022-08-08T09:00:14.727Z,68.80
2022-08-08T09:02:26.742Z,68.00
2022-08-08T09:04:44.537Z,69.30
2022-08-08T09:06:58.689Z,69.00
2022-08-08T09:09:18.771Z,68.30
2022-08-08T09:11:47.612Z,68.80
2022-08-08T09:14:04.524Z,68.40
2022-08-08T09:16:10.100Z,68.30
2022-08-08T09:18:18.761Z,67.80
2022-08-08T09:21:57.184Z,67.50
2022-08-08T09:22:58.541Z,67.80
2022-08-08T09:25:11.195Z,66.90
2022-08-08T09:27:21.139Z,66.80
2022-08-08T09:29:32.752Z,67.10
2022-08-08T09:31:57.091Z,66.80
2022-08-08T09:34:30.508Z,66.40
2022-08-08T09:36:40.448Z,65.60
2022-08-08T09:39:15.402Z,65.40
2022-08-08T09:42:15.010Z,66.50
2022-08-08T09:44:13.119Z,66.70
2022-08-08T09:46:30.703Z,65.30
2022-08-08T09:48:42.806Z,65.60
2022-08-08T09:50:56.054Z,65.60
2022-08-08T09:53:14.387Z,66.40
2022-08-08T09:55:51.367Z,66.30
2022-08-08T09:58:06.642Z,66.30
2022-08-08T10:00:37.393Z,66.00
2022-08-08T10:02:44.935Z,66.10
2022-08-08T10:04:50.112Z,65.90
2022-08-08T10:06:58.848Z,65.10
2022-08-08T10:09:05.968Z,65.60
2022-08-08T10:12:28.027Z,65.70
2022-08-08T10:13:41.189Z,65.90
2022-08-08T10:16:00.873Z,65.80
2022-08-08T10:18:11.736Z,65.60
2022-08-08T10:20:18.354Z,65.40
2022-08-08T10:22:25.969Z,65.30
2022-08-08T10:24:35.220Z,65.90
2022-08-08T10:26:57.494Z,65.60
2022-08-08T10:29:07.326Z,65.30
2022-08-08T10:31:47.293Z,65.40
2022-08-08T10:34:18.778Z,65.00
2022-08-08T10:36:25.036Z,64.70
2022-08-08T10:38:40.465Z,63.40
2022-08-08T10:40:46.617Z,63.30
2022-08-08T10:42:55.869Z,64.10
2022-08-08T10:45:08.988Z,63.60
2022-08-08T10:47:16.280Z,64.30
2022-08-08T10:50:01.491Z,63.40
2022-08-08T10:52:00.730Z,63.80
2022-08-08T10:54:07.214Z,63.30
2022-08-08T10:56:27.781Z,64.00
2022-08-08T10:58:36.870Z,64.00
2022-08-08T11:01:01.816Z,63.40
2022-08-08T11:03:16.917Z,63.50
2022-08-08T11:05:22.979Z,62.50
2022-08-08T11:08:30.562Z,63.00
2022-08-08T11:09:54.575Z,62.70
2022-08-08T11:12:12.689Z,62.50
2022-08-08T11:14:20.815Z,64.60
2022-08-08T11:16:34.651Z,63.60
2022-08-08T11:18:39.957Z,63.40
2022-08-08T11:20:52.374Z,62.70
2022-08-08T11:22:59.235Z,62.60
2022-08-08T11:25:13.878Z,62.90
2022-08-08T11:27:23.328Z,61.80
2022-08-08T11:29:50.971Z,61.90
2022-08-08T11:31:56.163Z,62.70
2022-08-08T11:34:24.117Z,62.30
2022-08-08T11:36:29.571Z,62.40
2022-08-08T11:38:43.792Z,62.40
2022-08-08T11:40:58.773Z,62.30
2022-08-08T11:43:05.252Z,63.00
2022-08-08T11:45:11.009Z,63.90
2022-08-08T11:47:24.440Z,63.70
2022-08-08T11:49:44.956Z,63.30
2022-08-08T11:51:54.723Z,63.00
2022-08-08T11:54:01.986Z,61.90
2022-08-08T11:56:07.248Z,61.50
2022-08-08T11:58:15.184Z,61.70
2022-08-08T12:00:20.869Z,62.40
2022-08-08T12:02:32.766Z,61.50
2022-08-08T12:04:39.371Z,61.10
2022-08-08T12:06:44.762Z,59.90
2022-08-08T12:08:53.015Z,60.00
2022-08-08T12:11:02.456Z,60.40
2022-08-08T12:13:10.102Z,60.10
2022-08-08T12:15:27.757Z,60.80
2022-08-08T12:17:36.765Z,60.50
2022-08-08T12:19:51.625Z,60.80
2022-08-08T12:22:09.396Z,60.80
2022-08-08T12:24:20.664Z,60.60
2022-08-08T12:26:41.552Z,61.00
2022-08-08T12:28:56.927Z,60.70
2022-08-08T12:31:08.783Z,60.40
2022-08-08T12:33:20.654Z,59.40
2022-08-08T12:35:25.350Z,60.60
2022-08-08T12:37:40.985Z,60.10
2022-08-08T12:40:00.783Z,59.70
2022-08-08T12:42:08.547Z,59.60
2022-08-08T12:44:30.131Z,59.90
2022-08-08T12:46:38.686Z,59.50
2022-08-08T12:49:21.897Z,59.60
2022-08-08T12:51:21.907Z,59.70
2022-08-08T12:53:30.061Z,59.90
2022-08-08T12:56:08.500Z,60.10
2022-08-08T12:58:19.613Z,58.60
2022-08-08T13:00:34.004Z,59.30
2022-08-08T13:02:51.371Z,60.20
2022-08-08T13:04:59.316Z,60.20
2022-08-08T13:07:05.822Z,59.80
2022-08-08T13:09:10.749Z,59.90
2022-08-08T13:11:23.395Z,59.80
2022-08-08T13:13:37.153Z,59.60
2022-08-08T13:15:42.177Z,58.90
2022-08-08T13:18:11.046Z,59.10
2022-08-08T13:20:18.750Z,59.30
2022-08-08T13:22:24.655Z,58.30
2022-08-08T13:24:42.200Z,58.90
2022-08-08T13:27:00.559Z,58.30
2022-08-08T13:29:11.787Z,58.40
2022-08-08T13:31:17.123Z,58.20
2022-08-08T13:33:23.521Z,58.50
2022-08-08T13:35:38.996Z,57.40
2022-08-08T13:38:04.633Z,56.60
2022-08-08T13:40:17.827Z,57.30
2022-08-08T13:42:31.197Z,56.60
2022-08-08T13:44:35.804Z,57.70
2022-08-08T13:46:54.940Z,58.30
2022-08-08T13:49:12.040Z,58.20
2022-08-08T13:51:37.721Z,58.00
2022-08-08T13:54:00.038Z,57.10
2022-08-08T13:56:11.194Z,57.50
2022-08-08T13:58:20.586Z,57.60
2022-08-08T14:00:25.722Z,57.30
2022-08-08T14:02:32.691Z,57.60
2022-08-08T14:04:52.965Z,57.80
2022-08-08T14:07:00.649Z,57.90
2022-08-08T14:09:25.152Z,57.70
2022-08-08T14:11:36.172Z,56.80
2022-08-08T14:14:00.144Z,56.60
2022-08-08T14:16:15.809Z,56.00
2022-08-08T14:18:36.772Z,57.20
2022-08-08T14:21:02.441Z,57.60
2022-08-08T14:23:10.179Z,57.10
2022-08-08T14:25:25.053Z,56.20
2022-08-08T14:27:34.155Z,56.40
2022-08-08T14:29:40.158Z,55.70
2022-08-08T14:32:08.775Z,55.20
2022-08-08T14:34:19.451Z,56.50
2022-08-08T14:36:36.585Z,56.10
2022-08-08T14:38:52.699Z,55.90
2022-08-08T14:41:13.183Z,55.50
2022-08-08T14:44:02.766Z,55.70
2022-08-08T14:46:02.868Z,55.40
2022-08-08T14:48:10.485Z,55.90
2022-08-08T14:50:37.602Z,55.80
2022-08-08T14:52:57.304Z,55.80
2022-08-08T14:55:01.853Z,56.60
2022-08-08T14:57:08.023Z,56.10
2022-08-08T14:59:31.308Z,56.10
2022-08-08T15:01:41.169Z,56.70
2022-08-08T15:03:53.678Z,56.50
2022-08-08T15:06:10.737Z,56.80
2022-08-08T15:08:33.387Z,56.50
2022-08-08T15:10:40.691Z,56.80
2022-08-08T15:12:49.371Z,56.90
2022-08-08T15:14:53.629Z,57.00
2022-08-08T15:16:58.129Z,56.50
2022-08-08T15:19:02.512Z,55.70
2022-08-08T15:21:08.358Z,56.30
2022-08-08T15:23:14.845Z,56.50
2022-08-08T15:25:29.306Z,56.70
2022-08-08T15:28:04.816Z,57.00
2022-08-08T15:29:58.317Z,57.00
2022-08-08T15:32:20.268Z,57.40
2022-08-08T15:34:31.862Z,56.90
2022-08-08T15:36:37.338Z,57.10
2022-08-08T15:38:49.751Z,57.00
2022-08-08T15:40:56.562Z,56.40
2022-08-08T15:43:00.995Z,56.90
2022-08-08T15:45:22.992Z,57.00
2022-08-08T15:47:34.397Z,57.10
2022-08-08T15:49:41.263Z,57.00
2022-08-08T15:51:45.677Z,57.10
2022-08-08T15:53:50.565Z,57.20
2022-08-08T15:55:56.611Z,57.40
2022-08-08T15:58:03.537Z,57.80
2022-08-08T16:00:27.316Z,58.00
2022-08-08T16:02:33.912Z,57.80
2022-08-08T16:04:39.291Z,57.90
2022-08-08T16:06:47.208Z,58.20
2022-08-08T16:09:02.108Z,58.30
2022-08-08T16:13:14.781Z,58.20
2022-08-08T16:13:46.497Z,58.10
2022-08-08T16:15:57.241Z,58.10
2022-08-08T16:18:12.159Z,58.50
2022-08-08T16:20:16.943Z,58.40
2022-08-08T16:22:29.964Z,58.40
2022-08-08T16:24:36.023Z,58.50
2022-08-08T16:26:43.897Z,58.40
2022-08-08T16:28:50.418Z,58.60
2022-08-08T16:30:54.941Z,58.50
2022-08-08T16:32:59.478Z,58.80
2022-08-08T16:35:06.977Z,58.80
2022-08-08T16:37:11.640Z,59.00
2022-08-08T16:39:48.961Z,58.90
2022-08-08T16:41:50.354Z,59.00
2022-08-08T16:43:57.685Z,58.70
2022-08-08T16:46:43.171Z,58.50
2022-08-08T16:48:32.317Z,58.70
2022-08-08T16:50:41.388Z,58.80
2022-08-08T16:55:00.447Z,59.40
2022-08-08T16:55:34.196Z,60.70
2022-08-08T16:58:14.303Z,61.40
2022-08-08T17:00:08.767Z,61.80
2022-08-08T17:02:38.032Z,62.40
2022-08-08T17:04:40.196Z,63.00
2022-08-08T17:06:44.721Z,63.20
2022-08-08T17:08:49.038Z,63.40
2022-08-08T17:10:59.450Z,63.50
2022-08-08T17:13:16.949Z,63.80
2022-08-08T17:15:23.977Z,64.00
2022-08-08T17:18:01.183Z,64.20
2022-08-08T17:19:53.140Z,64.60
2022-08-08T17:21:57.505Z,64.80
2022-08-08T17:24:10.711Z,65.40
2022-08-08T17:26:30.500Z,65.80
2022-08-08T17:28:36.301Z,65.90
2022-08-08T17:30:40.857Z,66.10
2022-08-08T17:34:37.358Z,66.40
2022-08-08T17:35:54.191Z,66.50
2022-08-08T17:37:36.646Z,66.90
2022-08-08T17:40:05.067Z,67.20
2022-08-08T17:42:08.248Z,67.60
2022-08-08T17:44:15.962Z,67.80
2022-08-08T17:46:37.376Z,67.80
2022-08-08T17:48:42.220Z,67.90
2022-08-08T17:50:52.314Z,68.00
2022-08-08T17:52:58.055Z,68.00
2022-08-08T17:55:05.453Z,67.80
2022-08-08T17:57:16.667Z,68.30
2022-08-08T17:59:30.473Z,67.90
2022-08-08T18:01:56.342Z,68.10
2022-08-08T18:04:00.740Z,68.00
2022-08-08T18:06:19.917Z,68.10
2022-08-08T18:08:41.635Z,68.20
2022-08-08T18:10:48.724Z,68.30
2022-08-08T18:12:53.264Z,68.50
2022-08-08T18:14:59.279Z,68.50
2022-08-08T18:17:03.542Z,68.40
2022-08-08T18:19:22.493Z,68.60
2022-08-08T18:21:59.071Z,69.00
2022-08-08T18:23:56.087Z,69.30
2022-08-08T18:26:01.565Z,69.50
2022-08-08T18:28:12.932Z,69.50
2022-08-08T18:30:21.302Z,69.60
2022-08-08T18:32:26.356Z,69.70
2022-08-08T18:34:31.164Z,69.90
2022-08-08T18:36:37.602Z,69.90
2022-08-08T18:38:43.690Z,69.80
2022-08-08T18:40:54.168Z,69.90
2022-08-08T18:42:58.752Z,70.00
2022-08-08T18:45:09.352Z,70.20
2022-08-08T18:47:33.520Z,70.20
2022-08-08T18:49:54.769Z,70.80
2022-08-08T18:52:02.730Z,71.00
2022-08-08T18:54:13.708Z,71.40
2022-08-08T18:56:34.001Z,71.60
2022-08-08T18:58:39.920Z,71.60
2022-08-08T19:00:46.515Z,71.50
2022-08-08T19:03:04.092Z,71.50
2022-08-08T19:05:13.975Z,71.70
2022-08-08T19:07:18.334Z,71.90
2022-08-08T19:09:23.337Z,71.60
2022-08-08T19:11:48.099Z,71.60
2022-08-08T19:13:57.229Z,71.40
2022-08-08T19:16:02.050Z,71.40
2022-08-08T19:18:33.134Z,71.50
2022-08-08T19:20:36.901Z,71.30
2022-08-08T19:22:44.524Z,71.70
2022-08-08T19:25:03.104Z,71.70
2022-08-08T19:27:15.048Z,71.70
2022-08-08T19:29:22.159Z,71.70
2022-08-08T19:31:31.052Z,71.60
2022-08-08T19:33:52.349Z,72.30
2022-08-08T19:36:08.396Z,71.90
2022-08-08T19:38:17.365Z,72.10
2022-08-08T19:40:31.172Z,72.20
2022-08-08T19:42:37.579Z,72.20
2022-08-08T19:44:42.914Z,72.50
2022-08-08T19:46:50.432Z,72.40
2022-08-08T19:48:57.547Z,72.60
2022-08-08T19:51:01.841Z,73.20
2022-08-08T19:53:21.989Z,73.30
2022-08-08T19:55:34.064Z,73.10
2022-08-08T19:57:38.951Z,73.70
2022-08-08T19:59:44.321Z,73.10
2022-08-08T20:02:00.936Z,73.70
2022-08-08T20:04:08.947Z,73.70
2022-08-08T20:06:16.822Z,73.70
2022-08-08T20:08:28.397Z,73.80
2022-08-08T20:10:44.542Z,74.10
2022-08-08T20:13:11.197Z,74.20
2022-08-08T20:15:16.939Z,74.30
2022-08-08T20:17:26.800Z,74.60
2022-08-08T20:19:43.321Z,74.70
2022-08-08T20:21:49.013Z,75.00
2022-08-08T20:23:57.546Z,74.90
2022-08-08T20:26:03.082Z,75.10
2022-08-08T20:28:17.663Z,75.30
2022-08-08T20:30:52.780Z,75.50
2022-08-08T20:32:49.699Z,75.70
2022-08-08T20:35:01.405Z,75.80
2022-08-08T20:37:09.731Z,75.90
2022-08-08T20:39:15.123Z,76.30
2022-08-08T20:41:19.568Z,76.10
2022-08-08T20:43:44.183Z,76.20
2022-08-08T20:45:57.484Z,76.40
2022-08-08T20:48:02.814Z,76.50
2022-08-08T20:50:10.110Z,76.50
2022-08-08T20:52:15.415Z,76.40
2022-08-08T20:54:28.114Z,76.70
2022-08-08T20:56:35.723Z,76.50
2022-08-08T20:58:47.712Z,76.70
2022-08-08T21:00:52.608Z,76.50
2022-08-08T21:02:58.530Z,76.70
2022-08-08T21:05:03.210Z,76.60
2022-08-08T21:07:15.869Z,76.60
2022-08-08T21:09:21.587Z,76.40
2022-08-08T21:11:51.408Z,76.30
2022-08-08T21:13:52.554Z,76.00
2022-08-08T21:16:05.752Z,75.90
2022-08-08T21:18:21.352Z,76.20
2022-08-08T21:20:34.620Z,76.10
2022-08-08T21:22:41.258Z,76.00
2022-08-08T21:24:52.529Z,76.10
2022-08-08T21:26:58.946Z,76.00
2022-08-08T21:29:03.828Z,76.00
2022-08-08T21:31:22.086Z,75.90
2022-08-08T21:33:30.447Z,75.80
2022-08-08T21:36:16.453Z,75.80
2022-08-08T21:38:04.136Z,75.80
2022-08-08T21:40:12.619Z,75.90
2022-08-08T21:42:17.304Z,76.10
2022-08-08T21:44:22.207Z,76.10
2022-08-08T21:48:08.233Z,76.70
2022-08-08T21:48:52.072Z,76.40
2022-08-08T21:50:58.144Z,75.90
2022-08-08T21:54:33.038Z,76.10
2022-08-08T21:56:19.447Z,76.10
2022-08-08T21:58:04.172Z,76.30
2022-08-08T22:00:18.036Z,76.50
2022-08-08T22:02:30.737Z,76.60
2022-08-08T22:04:35.697Z,76.90
2022-08-08T22:06:41.873Z,77.00
2022-08-08T22:08:47.765Z,76.90
2022-08-08T22:10:55.463Z,76.90
2022-08-08T22:13:18.385Z,76.90
2022-08-08T22:15:24.631Z,76.60
2022-08-08T22:17:32.439Z,76.80
2022-08-08T22:20:12.009Z,76.80
2022-08-08T22:22:14.517Z,77.30
2022-08-08T22:24:23.839Z,77.80
2022-08-08T22:26:33.270Z,77.60
2022-08-08T22:29:04.528Z,77.50
2022-08-08T22:31:18.912Z,77.60
2022-08-08T22:34:13.509Z,78.20
2022-08-08T22:36:04.173Z,78.70
2022-08-08T22:38:10.210Z,79.10
2022-08-08T22:40:21.868Z,79.30
2022-08-08T22:42:31.351Z,79.40
2022-08-08T22:44:36.467Z,79.30
2022-08-08T22:46:40.976Z,79.40
2022-08-08T22:48:50.460Z,79.80
2022-08-08T22:50:59.065Z,79.90
2022-08-08T22:54:29.151Z,80.30
2022-08-08T22:55:57.639Z,80.00
2022-08-08T22:58:01.914Z,80.00
2022-08-08T23:00:10.151Z,79.60
2022-08-08T23:02:19.544Z,79.80
2022-08-08T23:04:32.086Z,79.50
2022-08-08T23:06:36.998Z,79.70
2022-08-08T23:08:55.851Z,79.60
2022-08-08T23:11:05.818Z,79.50
2022-08-08T23:13:10.832Z,79.90
2022-08-08T23:16:38.868Z,79.90
2022-08-08T23:17:53.974Z,79.60
2022-08-08T23:20:02.007Z,80.20
2022-08-08T23:22:10.610Z,80.40
2022-08-08T23:24:22.933Z,80.40
2022-08-08T23:26:29.991Z,80.90
2022-08-08T23:28:34.519Z,81.20
2022-08-08T23:30:39.008Z,81.20
2022-08-08T23:32:45.324Z,80.80
2022-08-08T23:34:59.000Z,80.50
2022-08-08T23:37:04.961Z,80.50
2022-08-08T23:39:10.144Z,80.70
2022-08-08T23:41:22.920Z,80.90
2022-08-08T23:43:45.333Z,81.00
2022-08-08T23:49:02.528Z,81.30
2022-08-08T23:49:07.327Z,81.20
2022-08-08T23:50:40.985Z,81.70
2022-08-08T23:52:50.535Z,81.70
2022-08-08T23:55:07.266Z,81.80
2022-08-08T23:57:26.784Z,81.80
2022-08-08T23:59:35.976Z,82.10
